Ava, Ohio
Current Conditions -  °F | °C
As of 11:41 PM on Monday 20 Oct 2014 (Local Time) from KZZV Reporting Station
Light Rain Light Rain  
Wind Chill: 50°   Ceiling: 2900
Heat Index: 50°   Visibility: 10mi
Dew Point: 48°   Wind: 0mph
Humidity: 93%   Direction: NA
Pressure: 29.88"   Gusts: NA
Location:  39.83°N, 81.57°W
Report Text: KZZV 210341Z AUTO 00000KT 10SM -RA BKN029 BKN040 OVC075 10/09 A2988 RMK AO2 RAB03 P0000 T01000089
Loading
Personal Weather Stations






























Interactive Weather Map
Tropical Storm Tracking
New forecast layout! Learn more

10-Day Weather Forecast

Advertisements
Track Severe Weather on mobile